Tropical Cyclones
[Index]
Main Index Home Page Stock Weather Photos Extreme Storms Discussion Storm News and Storm Chasing Reports Tropical Cyclones / Hurricanes / Typhoons Weather Data and Links Wild Fires / Bushfires Weather Observation Techniques Weather Picture Catalogue Tornado Pictures and Reports Stock Video Footage and DVDs for sale
Season 1964-1965 Tropical Cyclone ANNIE Track Map
Season 1964-1965 Summaries: [BoM-AU] [JTWC-AU] [JTWC-SIO] [JTWC-SPAC] [JTWC-SH]
<<- Previous TC | JTWC 1964-1965 Season | Next TC ->>

click for intensity scale information  Lat/long Grid: Show Hide

 Date Labels: Show Hide

Joint Typhoon Warning Centre Cyclone Data

Name: ANNIE
Number: 561 / 6524

14 Feb 1965 12:00 UTC to 26 Feb 1965 12:00 UTC

    date/time    lat    long     hPa   cat  kts
1965-02-14 12    7.0    90.8                  30          
1965-02-14 18    8.1    89.9                  25          
1965-02-15 00    9.0    89.0                  20          
1965-02-15 06    9.6    88.1                  20          
1965-02-15 12   10.2    87.2                  20          
1965-02-15 18   10.8    86.4                  20          
1965-02-16 00   11.4    85.7                  15          
1965-02-16 06   12.0    85.0                  15          
1965-02-16 12   12.6    84.3                  10          
1965-02-16 18   13.0    83.9                  10          
1965-02-17 00   13.2    83.7                  10          
1965-02-17 06   13.4    83.5                  10          
1965-02-17 12   13.6    83.3                  05          
1965-02-17 18   13.8    83.0                  05          
1965-02-18 00   14.0    82.8                  05          
1965-02-18 06   14.3    82.6                  05          
1965-02-18 12   14.6    82.4                  05          
1965-02-18 18   14.9    82.2                  05          
1965-02-19 00   15.2    82.0                  05          
1965-02-19 06   15.5    81.8                  05          
1965-02-19 12   15.8    81.5                  10          
1965-02-19 18   16.3    81.3                  10          
1965-02-20 00   16.8    81.2                  10          
1965-02-20 06   17.3    81.1                  15          
1965-02-20 12   17.8    81.1                  20          
1965-02-20 18   18.2    81.1                  30          
1965-02-21 00   18.6    81.1            1     40          
1965-02-21 06   19.0    81.1                  35          
1965-02-21 12   19.4    81.1                  30          
1965-02-21 18   19.7    81.1                  30          
1965-02-22 00   20.0    81.2                  25          
1965-02-22 06   20.4    81.2                  25          
1965-02-22 12   20.8    81.3                  20          
1965-02-22 18   21.3    81.4                  20          
1965-02-23 00   21.8    81.6                  20          
1965-02-23 06   22.3    81.7                  25          
1965-02-23 12   22.8    81.8                  25          
1965-02-23 18   23.2    82.0                  25          
1965-02-24 00   23.5    82.2                  25          
1965-02-24 06   24.0    82.4                  25          
1965-02-24 12   24.4    82.6                  25          
1965-02-24 18   24.7    82.8                  25          
1965-02-25 00   25.0    83.1                  20          
1965-02-25 06   25.3    83.2                  20          
1965-02-25 12   25.6    83.3                  20          
1965-02-25 18   25.8    83.6                  20          
1965-02-26 00   26.0    84.0                  20          
1965-02-26 06   26.4    84.5                  15          
1965-02-26 12   27.0    85.0                  15          
Winds are 1-min average.

Tropical cyclone tracks developed by Michael Bath using data from the Joint Typhoon Warning Centre Best Tracks and Google Maps.


[Australian Severe Weather index] [Copyright Notice] [Email Contacts] [Search This Site] [Privacy Policy]
Document: tropical_cyclone_annie.htm Updated: 18 September 2016